Decoded Metar for KAKH (GASTONIA in NC, USA) (IATA:AKH) | Meteo·Mobile Aviation Weather
aviador You're here:

KAKH Decoded Metar

GASTONIA in NC, USA
Report Time2018-09-24 17:54:00
UTC Time2018-09-24 18:05:11
Flight Rules mvfr MVFR
Wind040° at 05 kt
W.Decomp.*RWY 03: 4.8 kt HW 1.4 kt RCW
W.Rank040° ranks 2
Current wind is below 040° avg. (7.1)
Visibility9999 m
Phenomena:N/A
Clouds:Overcast 012 Hf
Expected CloudBase > 1,600 ft AGL from Temp-Dew spread
Ceiling1,200 ft
Temp23°C (ISA +10)
Dew Point19°C (78% RH)
QNH1024 hPa
Density Alt1,834 ft
Elevation797 ft
Report Wrong Elevation
Raw Report
KAKH 241754Z AUTO 04005KT 10SM OVC012 23/19 A3024 RMK AO2 SLP235
T02280189 10228 20194 58003=

Extra information for KAKH:More info

Metar Taf Metar & Taf Last 4 Metars F.Rules Stats Wind Profile Meteogram Temp Stats Airport Information Weather charts Add Link Nearby VenuesMetar ALERT Operation Metar Decoded Social comments

AIRNAV info for KAKH